Weather observations for the past three days for
INDEPENDENCE
Imperial (Metric)
Date Time (cdt) Wind (mph) Vis. (mi.) Weather Sky Cond. Temperature (ºF) Relative Humidity Wind Chill (°F) Heat Index (°F) Pressure Precipitation (in)
Air Dwpt 6 hour altimeter (in) sea level (mb) 1 hr 3 hr 6 hr
Max. Min.
09 15:35 SW 8 10.00 Fair CLR 80.6 55.4 42% 81 29.82 0.0
09 15:15 S 7 10.00 Fair CLR 82.4 55.4 40% 82 29.82 0.0
09 14:55 S 7 10.00 Fair CLR 82.4 55.4 40% 82 29.83 0.0
09 14:35 SW 8 10.00 Fair CLR 82.4 53.6 37% 81 29.83 0.0
09 14:15 SW 10 7.00 Fair CLR 82.4 53.6 37% 81 29.84 0.0
09 13:55 S 8 10.00 Fair CLR 80.6 53.6 39% 80 29.84 0.0
09 13:35 S 7 10.00 Fair CLR 80.6 55.4 42% 81 29.84 0.0
09 13:15 S 9 10.00 Fair CLR 80.6 55.4 42% 81 29.85 0.0
09 12:55 SW 10 10.00 Fair CLR 80.6 55.4 42% 81 29.85 0.0
09 12:35 SW 6 10.00 Fair CLR 80.6 53.6 39% 80 29.86 0.0
09 12:15 SW 8 10.00 Fair CLR 78.8 57.2 48% 80 29.86 0.0
09 11:55 SW 7 10.00 Fair CLR 78.8 57.2 48% 80 29.86 0.0
09 11:35 W 3 10.00 Fair CLR 78.8 57.2 48% 80 29.86 0.0
09 11:15 W 5 10.00 Fair CLR 77 57.2 51% 79 29.86 0.0
09 10:55 W 6 10.00 Fair CLR 75.2 57.2 54% 78 29.86 0.0
09 10:35 W 6 10.00 Fair CLR 71.6 60.8 69% 29.86 0.0
09 10:15 W 5 10.00 Fair CLR 69.8 62.6 78% 29.86 0.0
09 09:55 W 3 10.00 Fair CLR 68 62.6 83% 29.86 0.0
09 09:35 W 7 10.00 Fair CLR 66.2 60.8 83% 29.86 0.0
09 09:15 W 3 10.00 Fair CLR 64.4 62.6 94% 29.86 0.0
09 08:55 Calm 10.00 Fair CLR 60.8 60.8 100% 29.86 0.0
09 08:35 Calm 10.00 Fair CLR 59 59 100% 29.86 0.0
09 08:15 Calm 10.00 Fair CLR 57.2 57.2 100% 29.86 0.0
09 07:55 Calm 10.00 Fair CLR 55.4 55.4 100% 29.85 0.0
09 07:35 Calm 0.75 Fog/Mist BKN001 53.6 51.8 94% 29.84 0.0
09 07:15 Calm 0.15 Fog OVC001 50 50 100% 29.84 0.0
09 06:55 Calm 0.15 Fog OVC001 48.2 48.2 100% 29.84 0.0
09 06:35 Calm 0.25 Fog OVC003 48.2 48.2 100% 29.83 0.0
09 06:15 SW 5 0.15 Fog OVC003 48.2 48.2 100% 47 29.83 0.0
09 05:55 S 3 0.25 Fog OVC003 48.2 48.2 100% 29.82 0.0
09 05:35 W 5 0.50 Fog OVC001 48.2 48.2 100% 47 29.82 0.0
09 05:15 S 7 0.50 Fog OVC001 48.2 48.2 100% 46 29.82 0.0
09 04:55 Calm 0.25 Fog OVC001 50 48.2 94% 29.82 0.0
09 04:35 SW 6 0.25 Fog OVC001 48.2 48.2 100% 46 29.83 0.0
09 04:15 S 3 0.25 Fog OVC003 50 50 100% 29.83 0.0
09 03:55 S 3 0.50 Fog BKN003 51.8 51.8 100% 29.83 0.0
09 03:35 S 3 3.50 Fog/Mist CLR 50 50 100% 29.84 0.0
09 03:15 S 6 3.50 Fog/Mist SCT002 51.8 50 94% 29.83 0.0
09 02:55 S 8 0.50 Fog BKN002 51.8 50 94% 29.84 0.0
09 02:35 Calm 0.50 Fog VV005 51.8 51.8 100% 29.83 0.0
09 02:15 Calm 0.50 Fog OVC002 53.6 51.8 94% 29.84 0.0
09 01:55 Calm 0.50 Fog OVC002 51.8 51.8 100% 29.84 0.0
09 01:35 Calm 0.25 Fog OVC002 53.6 53.6 100% 29.84 0.0
09 01:15 Calm 0.75 Fog/Mist VV005 53.6 53.6 100% 29.84 0.0
09 00:55 Calm 7.00 Fair CLR 53.6 53.6 100% 29.84 0.0
09 00:35 Calm 1.00 Fog/Mist VV007 53.6 53.6 100% 29.85 0.0
09 00:15 Calm 3.00 Fog/Mist CLR 55.4 53.6 94% 29.85 0.0
08 23:55 SW 3 1.75 Fog/Mist BKN002 55.4 55.4 100% 29.85 0.0
08 23:35 S 5 1.50 Fog/Mist SCT002 55.4 53.6 94% 29.85 0.0
08 23:15 S 6 0.50 Fog BKN002 55.4 55.4 100% 29.85 0.0
08 22:55 S 6 0.50 Fog VV005 57.2 55.4 94% 29.84 0.0
08 22:35 S 6 0.50 Fog BKN002 57.2 57.2 100% 29.84 0.0
08 22:15 S 5 1.00 Fog/Mist VV007 59 57.2 94% 29.83 0.0
08 21:55 Calm 10.00 Fair CLR 59 57.2 94% 29.82 0.0
08 21:35 Calm 10.00 Fair CLR 60.8 59 94% 29.8 0.0
08 21:15 Calm 10.00 Fair CLR 60.8 59 94% 29.8 0.0
08 20:55 N 3 10.00 Fair CLR 60.8 59 94% 29.79 0.0
08 20:35 N 8 10.00 Fair CLR 62.6 60.8 94% 29.78 0.0
08 20:15 N 8 10.00 Partly Cloudy SCT060 64.4 60.8 88% 29.77 0.0
08 19:55 Calm 10.00 Partly Cloudy SCT060 66.2 62.6 88% 29.77 0.0
08 19:35 Calm 10.00 Fair CLR 66.2 62.6 88% 29.75 0.0
08 19:15 NW 6 10.00 Partly Cloudy SCT065 68 62.6 83% 29.75 0.0
08 18:55 N 7 10.00 Partly Cloudy SCT065 68 62.6 83% 29.75 0.0
08 18:35 NE 9 10.00 Fair CLR 69.8 62.6 78% 29.72 0.0
08 17:55 NW 10 10.00 Thunderstorm Rain SCT050 SCT090 BKN110 66.2 60.8 83% 29.76 0.0 0.01
08 17:35 SE 7 10.00 Thunderstorm Light Rain in Vicinity CLR 68 59 73% 29.69 0.0
08 17:15 E 3 10.00 Thunderstorm Light Rain in Vicinity CLR 68 59 73% 29.73 0.0
08 16:55 S 7 10.00 Fair CLR 69.8 57.2 64% 29.73 0.0
08 16:35 S 8 10.00 Fair CLR 69.8 57.2 64% 29.74 0.0
08 16:15 S 9 10.00 Partly Cloudy SCT120 69.8 57.2 64% 29.75 0.0
08 15:55 S 8 10.00 Partly Cloudy SCT120 69.8 59 69% 29.76 0.0
08 15:35 S 8 10.00 Thunderstorm in Vicinity SCT120 73.4 57.2 57% 29.77 0.0
08 15:15 S 7 10.00 Partly Cloudy SCT120 73.4 57.2 57% 29.77 0.0
08 14:35 SW 17 G 25 10.00 Rain CLR 75.2 55.4 50% 78 29.78 0.0
08 14:15 SW 21 G 26 10.00 Fair and Breezy CLR 77 55.4 47% 79 29.78 0.0
08 13:55 SW 20 G 24 10.00 Fair CLR 77 55.4 47% 79 29.78 0.0
08 13:35 SW 16 10.00 Fair CLR 77 57.2 51% 79 29.79 0.0
08 13:15 S 16 G 23 10.00 Fair CLR 75.2 55.4 50% 78 29.79 0.0
08 12:35 S 18 10.00 Fair CLR 75.2 55.4 50% 78 29.81 0.0
08 12:15 SW 16 G 24 10.00 Fair CLR 73.4 55.4 53% 29.83 0.0
08 11:55 S 15 10.00 Fair CLR 73.4 55.4 53% 29.84 0.0
08 11:35 SW 15 G 25 10.00 Fair CLR 71.6 53.6 53% 29.85 0.0
08 11:15 SW 20 G 24 10.00 Fair CLR 71.6 53.6 53% 29.85 0.0
08 10:55 S 21 G 25 10.00 Fair and Breezy CLR 71.6 53.6 53% 29.85 0.0
08 10:35 S 16 G 24 10.00 Fair CLR 69.8 53.6 57% 29.86 0.0
08 10:15 S 20 10.00 Fair CLR 68 53.6 60% 29.87 0.0
08 09:55 S 14 G 21 10.00 Fair CLR 68 53.6 60% 29.87 0.0
08 09:35 S 13 G 22 10.00 Fair CLR 66.2 53.6 64% 29.88 0.0
08 09:15 S 15 10.00 Fair CLR 64.4 51.8 64% 29.89 0.0
08 08:35 S 13 10.00 Fair CLR 60.8 50 68% 29.89 0.0
08 08:15 S 13 10.00 Fair CLR 59 50 72% 29.9 0.0
08 07:55 S 12 10.00 Fair CLR 57.2 50 77% 29.9 0.0
08 07:35 S 10 10.00 Fair CLR 55.4 48.2 77% 29.9 0.0
08 07:15 S 10 10.00 Fair CLR 55.4 48.2 77% 29.89 0.0
08 06:55 S 9 10.00 Fair CLR 51.8 46.4 82% 29.89 0.0
08 06:35 S 10 10.00 Fair CLR 51.8 46.4 82% 29.88 0.0
08 06:15 S 9 10.00 Fair CLR 50 44.6 82% 47 29.87 0.0
08 05:55 S 8 10.00 Fair CLR 50 44.6 82% 47 29.87 0.0
08 05:35 S 9 10.00 Fair CLR 50 44.6 82% 47 29.87 0.0
08 05:15 S 9 10.00 Fair CLR 51.8 44.6 77% 29.87 0.0
08 04:55 S 9 10.00 Fair CLR 51.8 44.6 77% 29.87 0.0
08 04:35 S 7 10.00 Fair CLR 51.8 44.6 77% 29.87 0.0
08 04:20 S 9 10.00 Fair CLR 51.8 44.6 77% 29.87 0.0
08 03:55 S 9 10.00 Fair CLR 51.8 44.6 77% 29.87 0.0
08 03:35 S 9 10.00 Fair CLR 53.6 44.6 72% 29.86 0.0
08 03:15 S 10 10.00 Fair CLR 53.6 44.6 72% 29.87 0.0
08 02:55 S 12 10.00 Fair CLR 53.6 44.6 72% 29.87 0.0
08 02:35 S 10 10.00 Fair CLR 55.4 44.6 67% 29.88 0.0
08 02:15 S 12 10.00 Fair CLR 55.4 44.6 67% 29.89 0.0
08 01:55 S 12 10.00 Fair CLR 55.4 44.6 67% 29.89 0.0
08 01:35 S 13 10.00 Fair CLR 55.4 44.6 67% 29.89 0.0
08 01:15 S 12 10.00 Fair CLR 55.4 44.6 67% 29.89 0.0
08 00:55 S 12 10.00 Fair CLR 55.4 44.6 67% 29.89 0.0
08 00:35 S 10 10.00 Fair CLR 55.4 44.6 67% 29.89 0.0
08 00:15 S 9 10.00 Fair CLR 55.4 44.6 67% 29.9 0.0
07 23:55 S 9 10.00 Fair CLR 55.4 44.6 67% 29.9 0.0
07 23:35 S 8 10.00 Fair CLR 53.6 44.6 72% 29.91 0.0
07 23:15 S 8 10.00 Fair CLR 53.6 44.6 72% 29.91 0.0
07 22:55 S 9 10.00 Fair CLR 55.4 44.6 67% 29.91 0.0
07 22:35 S 10 10.00 Fair CLR 57.2 44.6 63% 29.91 0.0
07 22:15 S 12 10.00 Fair CLR 57.2 46.4 67% 29.92 0.0
07 21:55 S 10 10.00 Fair CLR 55.4 46.4 72% 29.92 0.0
07 21:35 S 10 10.00 Fair CLR 55.4 46.4 72% 29.91 0.0
07 21:15 S 9 10.00 Fair CLR 55.4 46.4 72% 29.91 0.0
07 20:55 S 9 10.00 Fair CLR 57.2 46.4 67% 29.91 0.0
07 20:35 S 8 10.00 Fair CLR 59 46.4 63% 29.9 0.0
07 20:15 S 8 10.00 Fair CLR 59 48.2 68% 29.89 0.0
07 19:55 S 9 10.00 Fair CLR 62.6 48.2 60% 29.89 0.0
07 19:35 S 8 10.00 Fair CLR 66.2 46.4 49% 29.89 0.0
07 19:15 S 9 10.00 Fair CLR 68 44.6 43% 29.89 0.0
07 18:55 S 9 10.00 Fair CLR 69.8 44.6 40% 29.89 0.0
07 18:35 S 13 10.00 Fair CLR 69.8 44.6 40% 29.9 0.0
07 18:15 SW 13 10.00 Fair CLR 69.8 44.6 40% 29.9 0.0
07 17:55 SW 10 10.00 Fair CLR 71.6 44.6 38% 29.9 0.0
07 17:35 SW 12 10.00 Fair CLR 71.6 44.6 38% 29.91 0.0
07 17:15 S 17 10.00 Fair CLR 71.6 44.6 38% 29.91 0.0
07 16:55 SW 14 G 18 10.00 Fair CLR 71.6 46.4 41% 29.92 0.0
07 16:35 SW 14 G 22 10.00 Fair CLR 69.8 44.6 40% 29.93 0.0
07 16:15 SW 14 G 21 10.00 Fair CLR 69.8 46.4 43% 29.93 0.0
07 15:55 SW 16 G 21 10.00 Fair CLR 69.8 44.6 40% 29.94 0.0
07 15:35 SW 12 G 22 10.00 Fair CLR 69.8 44.6 40% 29.96 0.0
07 15:15 SW 14 G 21 10.00 Fair CLR 69.8 44.6 40% 29.97 0.0
07 14:55 SW 16 G 22 10.00 Fair CLR 69.8 44.6 40% 29.98 0.0
07 14:35 SW 15 G 21 10.00 Partly Cloudy SCT060 68 44.6 43% 29.99 0.0
07 14:15 W 16 G 20 10.00 Fair CLR 68 46.4 46% 30 0.0
07 13:55 SW 10 G 17 10.00 Fair CLR 68 46.4 46% 30 0.0
07 13:35 SW 14 G 21 10.00 Fair CLR 66.2 44.6 46% 30.01 0.0
07 13:15 SW 15 G 21 10.00 Fair CLR 66.2 44.6 46% 30.02 0.0
07 12:55 SW 16 G 22 10.00 Fair CLR 66.2 42.8 43% 30.03 0.0
07 12:35 SW 15 G 21 10.00 Fair CLR 66.2 44.6 46% 30.03 0.0
07 12:15 SW 13 G 23 10.00 Fair CLR 64.4 44.6 49% 30.05 0.0
07 11:55 SW 16 G 20 10.00 Fair CLR 64.4 42.8 46% 30.06 0.0
07 11:35 SW 14 10.00 Fair CLR 62.6 42.8 49% 30.06 0.0
07 11:15 SW 15 10.00 Fair CLR 62.6 42.8 49% 30.07 0.0
07 10:55 SW 15 10.00 Fair CLR 62.6 42.8 49% 30.08 0.0
07 10:35 SW 14 G 18 10.00 Fair CLR 60.8 42.8 52% 30.08 0.0
07 10:15 S 12 10.00 Fair CLR 60.8 42.8 52% 30.08 0.0
07 09:55 SW 14 10.00 Fair CLR 59 42.8 55% 30.09 0.0
07 09:35 SW 12 10.00 Fair CLR 57.2 42.8 59% 30.1 0.0
07 09:15 SW 9 10.00 Fair CLR 57.2 42.8 59% 30.1 0.0
07 08:55 SW 10 10.00 Fair CLR 55.4 44.6 67% 30.1 0.0
07 08:35 SW 7 10.00 Fair CLR 53.6 44.6 72% 30.1 0.0
07 08:15 W 6 10.00 Fair CLR 50 44.6 82% 48 30.1 0.0
07 07:55 SW 3 10.00 Fair CLR 48.2 44.6 87% 30.1 0.0
07 07:35 S 5 10.00 Fair CLR 46.4 44.6 93% 45 30.09 0.0
07 07:15 S 3 10.00 Fair CLR 44.6 42.8 93% 30.09 0.0
07 06:55 S 5 10.00 Fair CLR 41 41 100% 38 30.08 0.0
07 06:35 S 3 10.00 Fair CLR 42.8 41 93% 30.08 0.0
07 06:15 SW 3 10.00 Fair CLR 42.8 41 93% 30.08 0.0
07 05:55 Calm 10.00 Partly Cloudy SCT090 44.6 42.8 93% 30.08 0.0
07 05:35 Calm 10.00 Partly Cloudy SCT090 44.6 42.8 93% 30.08 0.0
07 05:15 Calm 10.00 Partly Cloudy SCT090 44.6 42.8 93% 30.08 0.0
07 04:55 Calm 10.00 Partly Cloudy SCT120 44.6 44.6 100% 30.07 0.0
07 04:35 Calm 10.00 Overcast OVC120 46.4 44.6 93% 30.08 0.0
07 04:15 Calm 10.00 Overcast OVC120 46.4 44.6 93% 30.08 0.0
07 03:55 Calm 10.00 Overcast OVC120 44.6 44.6 100% 30.08 0.0
07 03:35 Calm 10.00 Overcast OVC120 44.6 42.8 93% 30.07 0.0
07 03:15 Calm 10.00 Overcast OVC110 44.6 42.8 93% 30.08 0.0
07 02:55 Calm 10.00 Overcast SCT090 OVC110 44.6 42.8 93% 30.08 0.0
07 02:15 SW 3 10.00 Mostly Cloudy SCT090 BKN110 42.8 41 93% 30.09 0.0
07 01:55 Calm 10.00 Fair CLR 42.8 41 93% 30.09 0.0
07 01:35 Calm 10.00 Fair CLR 42.8 41 93% 30.1 0.0
07 01:15 Calm 10.00 Fair CLR 42.8 41 93% 30.1 0.0
07 00:55 Calm 10.00 Fair CLR 44.6 41 87% 30.1 0.0
07 00:35 Calm 10.00 Fair CLR 44.6 41 87% 30.1 0.0
07 00:15 Calm 10.00 Fair CLR 44.6 41 87% 30.09 0.0
06 23:55 Calm 10.00 Fair CLR 46.4 41 82% 30.09 0.0
06 23:35 Calm 10.00 Fair CLR 46.4 41 82% 30.09 0.0
06 23:15 NW 3 10.00 Fair CLR 46.4 42.8 87% 30.1 0.0
06 22:55 N 5 10.00 Fair CLR 46.4 41 82% 45 30.09 0.0
06 22:35 N 5 10.00 Fair CLR 48.2 39.2 71% 47 30.09 0.0
06 22:15 N 5 10.00 Fair CLR 46.4 41 82% 45 30.09 0.0
06 21:55 N 3 10.00 Fair CLR 50 39.2 67% 30.08 0.0
06 21:35 N 3 10.00 Fair CLR 50 39.2 67% 30.08 0.0
06 21:15 N 6 10.00 Fair CLR 50 39.2 67% 48 30.07 0.0
06 20:55 N 6 10.00 Fair CLR 50 39.2 67% 48 30.07 0.0
06 20:35 N 8 10.00 Fair CLR 50 41 71% 47 30.06 0.0
06 20:15 N 7 10.00 Fair CLR 51.8 41 67% 30.06 0.0
06 19:55 N 9 10.00 Fair CLR 55.4 37.4 51% 30.05 0.0
06 19:35 N 8 10.00 Fair CLR 59 37.4 45% 30.05 0.0
06 19:15 N 13 10.00 Fair CLR 59 35.6 42% 30.04 0.0
06 18:55 N 14 G 22 10.00 Fair CLR 60.8 37.4 42% 30.03 0.0
06 18:35 N 13 10.00 Fair CLR 62.6 37.4 39% 30.03 0.0
06 18:15 NE 13 10.00 Fair CLR 62.6 37.4 39% 30.02 0.0
06 17:55 NE 14 G 21 10.00 Fair CLR 62.6 37.4 39% 30.02 0.0
06 17:35 N 14 10.00 Partly Cloudy SCT060 62.6 37.4 39% 30.02 0.0
06 17:15 NE 16 10.00 Partly Cloudy SCT060 60.8 37.4 42% 30.02 0.0
06 16:55 NE 13 G 18 10.00 Partly Cloudy SCT060 62.6 39.2 42% 30.02 0.0
06 16:35 NE 8 10.00 Partly Cloudy SCT060 62.6 39.2 42% 30.02 0.0
06 16:15 NE 16 10.00 Partly Cloudy SCT060 62.6 39.2 42% 30.03 0.0
06 15:55 N 14 10.00 Fair CLR 62.6 39.2 42% 30.04 0.0
Date Time (cdt) Wind (mph) Vis. (mi.) Weather Sky Cond. Air Dwpt Max. Min. Relative Humidity Wind Chill (°F) Heat Index (°F) altimeter (in) sea level (mb) 1 hr 3 hr 6 hr
6 hour
Temperature (ºF) Pressure Precipitation (in)